ETD643 OMAA-OBBI
Flight info
| Callsign | ETD643 |
|---|---|
| Flight time | 0h 45m |
| Altitude | 26000 |
| Route | DAXIB1P DAXIB Q563 IMGUX N563 ALPOB L768 ORDIG ORDIG1 |
| Aircraft | B77W/H-SDE1E2E3FGHIJ2J3J4J5M1RWXY/LB1D1 |
Departure
| Time | 2026-04-29 19:09 |
|---|---|
| Airport | Zayed International Airport (OMAA) |
Arrival
| Time | 2026-04-29 19:55 |
|---|---|
| Airport | Bahrain International Airport (OBBI) |
| Time | Latitude | Longitude | Altitude | Speed | Heading |
|---|---|---|---|---|---|
| 2026-04-29 18:30 | 24.44733 | 54.64245 | 80 ft | 0 kts | 72° |
| 2026-04-29 18:40 | 24.44733 | 54.64244 | 80 ft | 1 kts | 72° |
| 2026-04-29 18:40 | 24.44728 | 54.64230 | 80 ft | 3 kts | 72° |
| 2026-04-29 18:41 | 24.44711 | 54.64172 | 86 ft | 3 kts | 79° |
| 2026-04-29 18:41 | 24.44709 | 54.64155 | 86 ft | 3 kts | 103° |
| 2026-04-29 18:42 | 24.44713 | 54.64142 | 86 ft | 3 kts | 136° |
| 2026-04-29 18:42 | 24.44725 | 54.64133 | 86 ft | 3 kts | 163° |
| 2026-04-29 18:42 | 24.44745 | 54.64127 | 86 ft | 3 kts | 166° |
| 2026-04-29 18:42 | 24.44756 | 54.64124 | 86 ft | 0 kts | 163° |
| 2026-04-29 18:45 | 24.44731 | 54.64132 | 86 ft | 15 kts | 163° |
| 2026-04-29 18:45 | 24.44615 | 54.64178 | 85 ft | 18 kts | 158° |
| 2026-04-29 18:45 | 24.44497 | 54.64225 | 86 ft | 18 kts | 159° |
| 2026-04-29 18:46 | 24.44382 | 54.64295 | 86 ft | 19 kts | 134° |
| 2026-04-29 18:46 | 24.44301 | 54.64411 | 85 ft | 19 kts | 127° |
| 2026-04-29 18:46 | 24.44219 | 54.64528 | 86 ft | 19 kts | 128° |
| 2026-04-29 18:46 | 24.44135 | 54.64645 | 84 ft | 19 kts | 128° |
| 2026-04-29 18:47 | 24.44050 | 54.64763 | 86 ft | 20 kts | 128° |
| 2026-04-29 18:47 | 24.43985 | 54.64882 | 82 ft | 10 kts | 95° |
| 2026-04-29 18:47 | 24.44016 | 54.64920 | 83 ft | 8 kts | 37° |
| 2026-04-29 18:47 | 24.44099 | 54.64989 | 85 ft | 21 kts | 36° |
| 2026-04-29 18:48 | 24.44214 | 54.65087 | 86 ft | 21 kts | 38° |
| 2026-04-29 18:48 | 24.44329 | 54.65184 | 86 ft | 21 kts | 37° |
| 2026-04-29 18:48 | 24.44444 | 54.65280 | 87 ft | 21 kts | 37° |
| 2026-04-29 18:48 | 24.44558 | 54.65375 | 86 ft | 21 kts | 37° |
| 2026-04-29 18:49 | 24.44672 | 54.65472 | 86 ft | 21 kts | 38° |
| 2026-04-29 18:49 | 24.44787 | 54.65570 | 87 ft | 21 kts | 38° |
| 2026-04-29 18:49 | 24.44864 | 54.65638 | 86 ft | 0 kts | 44° |
| 2026-04-29 18:49 | 24.44868 | 54.65644 | 86 ft | 3 kts | 56° |
| 2026-04-29 18:50 | 24.44863 | 54.65674 | 87 ft | 8 kts | 115° |
| 2026-04-29 18:50 | 24.44806 | 54.65755 | 86 ft | 15 kts | 130° |
| 2026-04-29 18:50 | 24.44741 | 54.65848 | 87 ft | 15 kts | 127° |
| 2026-04-29 18:50 | 24.44690 | 54.65920 | 87 ft | 0 kts | 129° |
| 2026-04-29 18:51 | 24.44676 | 54.65939 | 86 ft | 14 kts | 127° |
| 2026-04-29 18:51 | 24.44644 | 54.65985 | 87 ft | 5 kts | 128° |
| 2026-04-29 18:51 | 24.44616 | 54.66024 | 87 ft | 0 kts | 128° |
| 2026-04-29 18:53 | 24.44593 | 54.66056 | 87 ft | 17 kts | 128° |
| 2026-04-29 18:53 | 24.44516 | 54.66165 | 88 ft | 18 kts | 127° |
| 2026-04-29 18:53 | 24.44439 | 54.66274 | 89 ft | 18 kts | 128° |
| 2026-04-29 18:54 | 24.44361 | 54.66385 | 90 ft | 19 kts | 128° |
| 2026-04-29 18:54 | 24.44279 | 54.66498 | 88 ft | 19 kts | 128° |
| 2026-04-29 18:54 | 24.44198 | 54.66612 | 89 ft | 19 kts | 128° |
| 2026-04-29 18:54 | 24.44118 | 54.66726 | 90 ft | 19 kts | 127° |
| 2026-04-29 18:55 | 24.44063 | 54.66805 | 89 ft | 0 kts | 127° |
| 2026-04-29 18:55 | 24.44059 | 54.66823 | 89 ft | 4 kts | 97° |
| 2026-04-29 18:55 | 24.44073 | 54.66861 | 88 ft | 7 kts | 48° |
| 2026-04-29 18:55 | 24.44117 | 54.66899 | 89 ft | 8 kts | 38° |
| 2026-04-29 18:56 | 24.44120 | 54.66902 | 90 ft | 0 kts | 38° |
| 2026-04-29 19:04 | 24.44121 | 54.66903 | 85 ft | 0 kts | 38° |
| 2026-04-29 19:05 | 24.44137 | 54.66917 | 88 ft | 8 kts | 38° |
| 2026-04-29 19:05 | 24.44181 | 54.66954 | 89 ft | 14 kts | 35° |
| 2026-04-29 19:05 | 24.44232 | 54.66984 | 86 ft | 0 kts | 19° |
| 2026-04-29 19:06 | 24.44239 | 54.66985 | 85 ft | 7 kts | 11° |
| 2026-04-29 19:06 | 24.44265 | 54.66981 | 87 ft | 5 kts | 324° |
| 2026-04-29 19:06 | 24.44274 | 54.66969 | 89 ft | 0 kts | 310° |
| 2026-04-29 19:08 | 24.44278 | 54.66964 | 90 ft | 8 kts | 310° |
| 2026-04-29 19:08 | 24.44406 | 54.66788 | 87 ft | 60 kts | 308° |
| 2026-04-29 19:09 | 24.44846 | 54.66171 | 84 ft | 141 kts | 308° |
| 2026-04-29 19:09 | 24.45562 | 54.65166 | 333 ft | 175 kts | 310° |
| 2026-04-29 19:09 | 24.46276 | 54.64140 | 1256 ft | 166 kts | 314° |
| 2026-04-29 19:09 | 24.47047 | 54.63226 | 2023 ft | 166 kts | 323° |
| 2026-04-29 19:10 | 24.48055 | 54.62486 | 2424 ft | 186 kts | 335° |
| 2026-04-29 19:10 | 24.49345 | 54.61896 | 2670 ft | 216 kts | 341° |
| 2026-04-29 19:10 | 24.50825 | 54.61309 | 3169 ft | 232 kts | 342° |
| 2026-04-29 19:10 | 24.52378 | 54.60700 | 3864 ft | 240 kts | 341° |
| 2026-04-29 19:11 | 24.53971 | 54.60075 | 4686 ft | 245 kts | 340° |
| 2026-04-29 19:11 | 24.55579 | 54.59442 | 5488 ft | 250 kts | 339° |
| 2026-04-29 19:11 | 24.57239 | 54.58786 | 6264 ft | 256 kts | 339° |
| 2026-04-29 19:11 | 24.58937 | 54.58115 | 6997 ft | 262 kts | 338° |
| 2026-04-29 19:12 | 24.60667 | 54.57429 | 7777 ft | 266 kts | 338° |
| 2026-04-29 19:12 | 24.62280 | 54.56478 | 8381 ft | 271 kts | 314° |
| 2026-04-29 19:12 | 24.63513 | 54.54838 | 8794 ft | 284 kts | 303° |
| 2026-04-29 19:12 | 24.64316 | 54.53642 | 9250 ft | 292 kts | 304° |
| 2026-04-29 19:13 | 24.65967 | 54.51252 | 10223 ft | 301 kts | 304° |
| 2026-04-29 19:13 | 24.67282 | 54.49367 | 10682 ft | 323 kts | 304° |
| 2026-04-29 19:13 | 24.68712 | 54.47316 | 10899 ft | 352 kts | 305° |
| 2026-04-29 19:13 | 24.70264 | 54.45095 | 11183 ft | 376 kts | 305° |
| 2026-04-29 19:14 | 24.71872 | 54.42800 | 11915 ft | 387 kts | 305° |
| 2026-04-29 19:14 | 24.73532 | 54.40435 | 12875 ft | 392 kts | 305° |
| 2026-04-29 19:14 | 24.75208 | 54.38046 | 13850 ft | 396 kts | 305° |
| 2026-04-29 19:14 | 24.76898 | 54.35635 | 14830 ft | 397 kts | 305° |
| 2026-04-29 19:15 | 24.78582 | 54.33229 | 15868 ft | 397 kts | 304° |
| 2026-04-29 19:15 | 24.80248 | 54.30847 | 16858 ft | 398 kts | 304° |
| 2026-04-29 19:15 | 24.81939 | 54.28426 | 17818 ft | 401 kts | 304° |
| 2026-04-29 19:15 | 24.83651 | 54.25973 | 18652 ft | 405 kts | 304° |
| 2026-04-29 19:16 | 24.85387 | 54.23483 | 19385 ft | 410 kts | 304° |
| 2026-04-29 19:16 | 24.87111 | 54.21010 | 20121 ft | 414 kts | 303° |
| 2026-04-29 19:16 | 24.88884 | 54.18469 | 20875 ft | 418 kts | 303° |
| 2026-04-29 19:16 | 24.90669 | 54.15907 | 21639 ft | 423 kts | 303° |
| 2026-04-29 19:17 | 24.92523 | 54.13349 | 22358 ft | 428 kts | 306° |
| 2026-04-29 19:17 | 24.94475 | 54.10895 | 23048 ft | 434 kts | 307° |
| 2026-04-29 19:17 | 24.96518 | 54.08419 | 23653 ft | 439 kts | 308° |
| 2026-04-29 19:17 | 24.98594 | 54.05919 | 24229 ft | 442 kts | 307° |
| 2026-04-29 19:18 | 25.00673 | 54.03401 | 24831 ft | 444 kts | 307° |
| 2026-04-29 19:18 | 25.02055 | 54.01714 | 25209 ft | 446 kts | 307° |
| 2026-04-29 19:18 | 25.04750 | 53.98400 | 25944 ft | 449 kts | 307° |
| 2026-04-29 19:18 | 25.06820 | 53.95841 | 26492 ft | 452 kts | 306° |
| 2026-04-29 19:19 | 25.08911 | 53.93251 | 27112 ft | 452 kts | 306° |
| 2026-04-29 19:19 | 25.11000 | 53.90662 | 27743 ft | 452 kts | 306° |
| 2026-04-29 19:19 | 25.13094 | 53.88066 | 28402 ft | 452 kts | 306° |
| 2026-04-29 19:19 | 25.15102 | 53.85576 | 29088 ft | 450 kts | 306° |
| 2026-04-29 19:20 | 25.17184 | 53.82994 | 29728 ft | 451 kts | 306° |
| 2026-04-29 19:20 | 25.21111 | 53.77797 | 29809 ft | 446 kts | 300° |
| 2026-04-29 19:21 | 25.24329 | 53.72008 | 29814 ft | 440 kts | 295° |
| 2026-04-29 19:21 | 25.27388 | 53.66192 | 29819 ft | 440 kts | 295° |
| 2026-04-29 19:22 | 25.30486 | 53.60344 | 29815 ft | 441 kts | 295° |
| 2026-04-29 19:22 | 25.33591 | 53.54503 | 29829 ft | 441 kts | 295° |
| 2026-04-29 19:23 | 25.36706 | 53.48643 | 29815 ft | 440 kts | 295° |
| 2026-04-29 19:23 | 25.39792 | 53.42828 | 29821 ft | 441 kts | 295° |
| 2026-04-29 19:24 | 25.42899 | 53.36962 | 29821 ft | 441 kts | 295° |
| 2026-04-29 19:24 | 25.45990 | 53.31123 | 29823 ft | 441 kts | 295° |
| 2026-04-29 19:25 | 25.49235 | 53.25342 | 29821 ft | 445 kts | 300° |
| 2026-04-29 19:25 | 25.53299 | 53.20087 | 29824 ft | 453 kts | 308° |
| 2026-04-29 19:26 | 25.57804 | 53.15261 | 29829 ft | 453 kts | 309° |
| 2026-04-29 19:26 | 25.62328 | 53.10398 | 29822 ft | 452 kts | 308° |
| 2026-04-29 19:27 | 25.66828 | 53.05504 | 29821 ft | 452 kts | 308° |
| 2026-04-29 19:27 | 25.70795 | 53.00263 | 29835 ft | 442 kts | 298° |
| 2026-04-29 19:28 | 25.73915 | 52.94446 | 29829 ft | 437 kts | 291° |
| 2026-04-29 19:28 | 25.76713 | 52.88445 | 29827 ft | 437 kts | 291° |
| 2026-04-29 19:29 | 25.79496 | 52.82493 | 29823 ft | 436 kts | 291° |
| 2026-04-29 19:29 | 25.82313 | 52.76509 | 29825 ft | 436 kts | 291° |
| 2026-04-29 19:30 | 25.85127 | 52.70538 | 29829 ft | 436 kts | 291° |
| 2026-04-29 19:30 | 25.87931 | 52.64581 | 29822 ft | 437 kts | 291° |
| 2026-04-29 19:31 | 25.90728 | 52.58586 | 29827 ft | 435 kts | 290° |
| 2026-04-29 19:31 | 25.93387 | 52.52582 | 29824 ft | 435 kts | 290° |
| 2026-04-29 19:32 | 25.96052 | 52.46529 | 29834 ft | 435 kts | 290° |
| 2026-04-29 19:32 | 25.98711 | 52.40530 | 29826 ft | 435 kts | 290° |
| 2026-04-29 19:33 | 26.01396 | 52.34491 | 29832 ft | 435 kts | 290° |
| 2026-04-29 19:33 | 26.04085 | 52.28455 | 29763 ft | 432 kts | 290° |
| 2026-04-29 19:33 | 26.05412 | 52.25477 | 29540 ft | 428 kts | 290° |
| 2026-04-29 19:34 | 26.06728 | 52.22517 | 29203 ft | 426 kts | 290° |
| 2026-04-29 19:34 | 26.08021 | 52.19602 | 28843 ft | 425 kts | 289° |
| 2026-04-29 19:34 | 26.09327 | 52.16654 | 28503 ft | 423 kts | 289° |
| 2026-04-29 19:34 | 26.10627 | 52.13719 | 28183 ft | 422 kts | 289° |
| 2026-04-29 19:35 | 26.11923 | 52.10793 | 27872 ft | 419 kts | 289° |
| 2026-04-29 19:35 | 26.13210 | 52.07882 | 27578 ft | 417 kts | 289° |
| 2026-04-29 19:35 | 26.14490 | 52.04988 | 27283 ft | 416 kts | 290° |
| 2026-04-29 19:35 | 26.15694 | 52.02263 | 26981 ft | 415 kts | 290° |
| 2026-04-29 19:36 | 26.16977 | 51.99354 | 26792 ft | 417 kts | 290° |
| 2026-04-29 19:36 | 26.18276 | 51.96460 | 26836 ft | 415 kts | 290° |
| 2026-04-29 19:36 | 26.19581 | 51.93589 | 26803 ft | 412 kts | 290° |
| 2026-04-29 19:36 | 26.20838 | 51.90785 | 26569 ft | 409 kts | 290° |
| 2026-04-29 19:37 | 26.22092 | 51.87946 | 26226 ft | 409 kts | 290° |
| 2026-04-29 19:37 | 26.22942 | 51.86017 | 25985 ft | 409 kts | 290° |
| 2026-04-29 19:37 | 26.24601 | 51.82258 | 25571 ft | 408 kts | 290° |
| 2026-04-29 19:37 | 26.25857 | 51.79423 | 25294 ft | 406 kts | 290° |
| 2026-04-29 19:38 | 26.27117 | 51.76600 | 25011 ft | 405 kts | 290° |
| 2026-04-29 19:38 | 26.28357 | 51.73826 | 24749 ft | 405 kts | 290° |
| 2026-04-29 19:38 | 26.29613 | 51.71014 | 24499 ft | 404 kts | 290° |
| 2026-04-29 19:38 | 26.30862 | 51.68211 | 24267 ft | 403 kts | 290° |
| 2026-04-29 19:39 | 26.32109 | 51.65411 | 24034 ft | 402 kts | 290° |
| 2026-04-29 19:39 | 26.33351 | 51.62619 | 23797 ft | 401 kts | 290° |
| 2026-04-29 19:39 | 26.34590 | 51.59831 | 23555 ft | 401 kts | 290° |
| 2026-04-29 19:39 | 26.35829 | 51.57044 | 23086 ft | 401 kts | 291° |
| 2026-04-29 19:40 | 26.37022 | 51.54358 | 22516 ft | 399 kts | 291° |
| 2026-04-29 19:40 | 26.38166 | 51.51557 | 21937 ft | 392 kts | 286° |
| 2026-04-29 19:40 | 26.39071 | 51.48746 | 21395 ft | 388 kts | 284° |
| 2026-04-29 19:40 | 26.39954 | 51.45907 | 20846 ft | 385 kts | 284° |
| 2026-04-29 19:41 | 26.40836 | 51.43094 | 20301 ft | 382 kts | 285° |
| 2026-04-29 19:41 | 26.41506 | 51.40974 | 19897 ft | 381 kts | 285° |
| 2026-04-29 19:41 | 26.42390 | 51.38191 | 19362 ft | 377 kts | 285° |
| 2026-04-29 19:41 | 26.43262 | 51.35473 | 18833 ft | 370 kts | 286° |
| 2026-04-29 19:42 | 26.44136 | 51.32800 | 18302 ft | 369 kts | 286° |
| 2026-04-29 19:42 | 26.44434 | 51.31889 | 18129 ft | 369 kts | 286° |
| 2026-04-29 19:42 | 26.45480 | 51.27388 | 17166 ft | 354 kts | 269° |
| 2026-04-29 19:42 | 26.45262 | 51.24711 | 16651 ft | 350 kts | 257° |
| 2026-04-29 19:43 | 26.44488 | 51.22149 | 16138 ft | 346 kts | 248° |
| 2026-04-29 19:43 | 26.43354 | 51.19777 | 15615 ft | 347 kts | 238° |
| 2026-04-29 19:43 | 26.41956 | 51.17636 | 15056 ft | 331 kts | 234° |
| 2026-04-29 19:43 | 26.40506 | 51.15715 | 14422 ft | 314 kts | 231° |
| 2026-04-29 19:44 | 26.39066 | 51.13954 | 13792 ft | 300 kts | 230° |
| 2026-04-29 19:44 | 26.37674 | 51.12285 | 13145 ft | 288 kts | 230° |
| 2026-04-29 19:44 | 26.36321 | 51.10681 | 12475 ft | 279 kts | 227° |
| 2026-04-29 19:44 | 26.34842 | 51.09353 | 11828 ft | 273 kts | 218° |
| 2026-04-29 19:45 | 26.33268 | 51.08208 | 11175 ft | 267 kts | 216° |
| 2026-04-29 19:45 | 26.31710 | 51.07116 | 10543 ft | 261 kts | 216° |
| 2026-04-29 19:45 | 26.30181 | 51.06050 | 9918 ft | 256 kts | 216° |
| 2026-04-29 19:45 | 26.28681 | 51.05005 | 9260 ft | 252 kts | 216° |
| 2026-04-29 19:46 | 26.27200 | 51.03974 | 8585 ft | 248 kts | 216° |
| 2026-04-29 19:46 | 26.25838 | 51.02828 | 7943 ft | 242 kts | 224° |
| 2026-04-29 19:46 | 26.24603 | 51.01593 | 7369 ft | 240 kts | 225° |
| 2026-04-29 19:46 | 26.23373 | 51.00338 | 6879 ft | 238 kts | 225° |
| 2026-04-29 19:47 | 26.22159 | 50.99097 | 6409 ft | 234 kts | 226° |
| 2026-04-29 19:47 | 26.21113 | 50.97765 | 6032 ft | 223 kts | 239° |
| 2026-04-29 19:47 | 26.20380 | 50.96249 | 5578 ft | 222 kts | 247° |
| 2026-04-29 19:47 | 26.19783 | 50.94667 | 5125 ft | 220 kts | 249° |
| 2026-04-29 19:48 | 26.19204 | 50.93106 | 4709 ft | 216 kts | 249° |
| 2026-04-29 19:48 | 26.18832 | 50.92097 | 4486 ft | 208 kts | 249° |
| 2026-04-29 19:48 | 26.18122 | 50.90177 | 4042 ft | 200 kts | 249° |
| 2026-04-29 19:48 | 26.17598 | 50.88770 | 3710 ft | 192 kts | 249° |
| 2026-04-29 19:49 | 26.17097 | 50.87431 | 3396 ft | 183 kts | 249° |
| 2026-04-29 19:49 | 26.16612 | 50.86144 | 3062 ft | 177 kts | 249° |
| 2026-04-29 19:49 | 26.16135 | 50.84869 | 2793 ft | 180 kts | 250° |
| 2026-04-29 19:49 | 26.16039 | 50.83516 | 2490 ft | 180 kts | 285° |
| 2026-04-29 19:50 | 26.16540 | 50.82272 | 2307 ft | 171 kts | 293° |
| 2026-04-29 19:50 | 26.17039 | 50.81096 | 2105 ft | 166 kts | 294° |
| 2026-04-29 19:50 | 26.17589 | 50.79943 | 1971 ft | 174 kts | 298° |
| 2026-04-29 19:50 | 26.18228 | 50.78757 | 1862 ft | 185 kts | 300° |
| 2026-04-29 19:51 | 26.18904 | 50.77565 | 1706 ft | 173 kts | 301° |
| 2026-04-29 19:51 | 26.19497 | 50.76537 | 1614 ft | 142 kts | 302° |
| 2026-04-29 19:51 | 26.20010 | 50.75641 | 1527 ft | 136 kts | 301° |
| 2026-04-29 19:51 | 26.20533 | 50.74734 | 1543 ft | 145 kts | 301° |
| 2026-04-29 19:52 | 26.20899 | 50.74099 | 1502 ft | 149 kts | 302° |
| 2026-04-29 19:52 | 26.21452 | 50.73139 | 1503 ft | 146 kts | 301° |
| 2026-04-29 19:52 | 26.21994 | 50.72198 | 1487 ft | 142 kts | 303° |
| 2026-04-29 19:52 | 26.22540 | 50.71248 | 1296 ft | 147 kts | 303° |
| 2026-04-29 19:53 | 26.23097 | 50.70282 | 1118 ft | 148 kts | 305° |
| 2026-04-29 19:53 | 26.23651 | 50.69316 | 928 ft | 147 kts | 306° |
| 2026-04-29 19:53 | 26.24196 | 50.68372 | 749 ft | 142 kts | 305° |
| 2026-04-29 19:53 | 26.24708 | 50.67480 | 621 ft | 132 kts | 304° |
| 2026-04-29 19:54 | 26.25647 | 50.65848 | 284 ft | 120 kts | 305° |
| 2026-04-29 19:54 | 26.26096 | 50.65077 | 125 ft | 116 kts | 304° |
| 2026-04-29 19:54 | 26.26530 | 50.64320 | 23 ft | 114 kts | 305° |
| 2026-04-29 19:55 | 26.26896 | 50.63689 | 21 ft | 77 kts | 302° |
| 2026-04-29 19:55 | 26.27111 | 50.63316 | 19 ft | 43 kts | 303° |
| 2026-04-29 19:55 | 26.27235 | 50.63080 | 23 ft | 31 kts | 288° |
| 2026-04-29 19:55 | 26.27256 | 50.62877 | 23 ft | 19 kts | 270° |
| 2026-04-29 19:56 | 26.27262 | 50.62730 | 25 ft | 16 kts | 275° |
| 2026-04-29 19:56 | 26.27227 | 50.62644 | 26 ft | 11 kts | 207° |
| 2026-04-29 19:56 | 26.27161 | 50.62666 | 29 ft | 11 kts | 123° |
| 2026-04-29 19:56 | 26.27121 | 50.62737 | 29 ft | 11 kts | 123° |
| 2026-04-29 19:57 | 26.27080 | 50.62807 | 29 ft | 11 kts | 123° |
| 2026-04-29 19:57 | 26.27033 | 50.62822 | 30 ft | 8 kts | 205° |
| 2026-04-29 19:57 | 26.26989 | 50.62791 | 29 ft | 4 kts | 212° |
| 2026-04-29 19:57 | 26.26982 | 50.62786 | 28 ft | 0 kts | 212° |